メインページ
METAR-TAF:

METAR-TAF

空港 :

カルガリー, アルバータ州, カナダ

カルガリー国際空港

緯度: 51-07N, 経度: 114-01W, 海抜: 1077m

現時点の気象観測

当レポートは1時間32分前の21:00(UTC)に作成
東/南東の風 8kt、東/南東からの間で変化する
気温 28°C
湿度 22%
気圧 1017 hPa
視程: 24.1km
高度9300ftの雲はほとんどない
高度30000ftの雲は散在している

METAR: CYYC 262100Z 12008KT 110V190 15SM FEW093 SCT300 28/04 A3003 RMK CU1CI3 CU TR SLP158 DENSITY ALT 5800FT

時間: 16:32 (22:32 UTC)

予報

当レポートは1時間54分前の20:38(UTC)に作成
予報は26日の 21時(UTC)から 27日の 18時(UTC)まで有効
南/南東の風 8kt
視程: 10km
高度30000ftの雲はほとんどない
27日の 0400時(UTC)から
南東の風 8kt
視程: 10km
晴天
27日の 04時(UTC)から 27日の 06時(UTC)まで徐々に
変向風 3kt
27日の 1700時(UTC)から
の風 8kt
視程: 10km
晴天

TAF: CYYC 262038Z 2621/2718 16008KT P6SM FEW300 FM270400 14008KT P6SM SKC BECMG 2704/2706 VRB03KT FM271700 18008KT P6SM SKC RMK NXT FCST BY 270000Z

4,000以上の空港の気象観測と天気予報(METAR報とTAF報)

利用可能な観測所は地図上に黄色い丸と赤い丸で示す。

丸の上にカーソルを重ねると観測所名を参照できる。

次にクリックすると気象観測と天気予報を参照できる。

マップの切り替え:黒色「×」印の緑ボタンをクリックして拡大、「-」印の緑ボタンをクリックして縮小、緑色の三角印をクリックして隣りの地図に切り替え


METAR-TAF: